sensor_id;sensor_type;location;lat;lon;timestamp;P1;durP1;ratioP1;P2;durP2;ratioP2
75261;SDS011;63859;51.064;4.580;2022-12-07T00:01:46;24.70;;;14.67;;
75261;SDS011;63859;51.064;4.580;2022-12-07T00:04:13;26.40;;;14.50;;
75261;SDS011;63859;51.064;4.580;2022-12-07T00:06:41;27.27;;;14.47;;
75261;SDS011;63859;51.064;4.580;2022-12-07T00:09:13;27.43;;;14.63;;
75261;SDS011;63859;51.064;4.580;2022-12-07T00:11:41;27.50;;;14.77;;
75261;SDS011;63859;51.064;4.580;2022-12-07T00:14:10;27.67;;;15.47;;
75261;SDS011;63859;51.064;4.580;2022-12-07T00:16:37;25.67;;;15.50;;
75261;SDS011;63859;51.064;4.580;2022-12-07T00:19:03;27.20;;;16.23;;
75261;SDS011;63859;51.064;4.580;2022-12-07T00:21:31;29.03;;;16.20;;
75261;SDS011;63859;51.064;4.580;2022-12-07T00:23:59;25.77;;;14.90;;
75261;SDS011;63859;51.064;4.580;2022-12-07T00:28:52;28.43;;;16.57;;
75261;SDS011;63859;51.064;4.580;2022-12-07T00:31:22;31.47;;;17.00;;
75261;SDS011;63859;51.064;4.580;2022-12-07T00:33:49;32.80;;;17.17;;
75261;SDS011;63859;51.064;4.580;2022-12-07T00:36:16;29.57;;;16.50;;
75261;SDS011;63859;51.064;4.580;2022-12-07T00:38:44;30.80;;;17.10;;
75261;SDS011;63859;51.064;4.580;2022-12-07T00:41:14;31.67;;;17.40;;
75261;SDS011;63859;51.064;4.580;2022-12-07T00:43:41;31.17;;;16.80;;
75261;SDS011;63859;51.064;4.580;2022-12-07T00:46:08;33.57;;;16.90;;
75261;SDS011;63859;51.064;4.580;2022-12-07T00:48:34;31.43;;;17.13;;
75261;SDS011;63859;51.064;4.580;2022-12-07T00:51:01;30.70;;;18.37;;
75261;SDS011;63859;51.064;4.580;2022-12-07T00:53:27;35.03;;;17.90;;
75261;SDS011;63859;51.064;4.580;2022-12-07T00:55:53;30.43;;;18.23;;
75261;SDS011;63859;51.064;4.580;2022-12-07T00:58:20;28.40;;;17.50;;
75261;SDS011;63859;51.064;4.580;2022-12-07T01:00:46;38.63;;;18.03;;
75261;SDS011;63859;51.064;4.580;2022-12-07T01:03:12;33.37;;;20.23;;
75261;SDS011;63859;51.064;4.580;2022-12-07T01:05:39;31.17;;;19.23;;
75261;SDS011;63859;51.064;4.580;2022-12-07T01:08:05;37.03;;;18.93;;
75261;SDS011;63859;51.064;4.580;2022-12-07T01:10:32;35.80;;;21.07;;
75261;SDS011;63859;51.064;4.580;2022-12-07T01:12:58;35.57;;;19.97;;
75261;SDS011;63859;51.064;4.580;2022-12-07T01:15:24;37.07;;;20.97;;
75261;SDS011;63859;51.064;4.580;2022-12-07T01:17:50;37.57;;;20.93;;
75261;SDS011;63859;51.064;4.580;2022-12-07T01:20:16;39.37;;;20.10;;
75261;SDS011;63859;51.064;4.580;2022-12-07T01:22:42;42.13;;;20.97;;
75261;SDS011;63859;51.064;4.580;2022-12-07T01:25:08;39.93;;;21.87;;
75261;SDS011;63859;51.064;4.580;2022-12-07T01:27:35;42.70;;;22.60;;
75261;SDS011;63859;51.064;4.580;2022-12-07T01:30:02;42.20;;;23.63;;
75261;SDS011;63859;51.064;4.580;2022-12-07T01:32:30;39.77;;;23.63;;
75261;SDS011;63859;51.064;4.580;2022-12-07T01:34:56;47.27;;;23.17;;
75261;SDS011;63859;51.064;4.580;2022-12-07T01:37:21;48.37;;;22.87;;
75261;SDS011;63859;51.064;4.580;2022-12-07T01:39:48;38.23;;;23.07;;
75261;SDS011;63859;51.064;4.580;2022-12-07T01:42:14;45.07;;;23.40;;
75261;SDS011;63859;51.064;4.580;2022-12-07T01:47:44;40.47;;;23.53;;
75261;SDS011;63859;51.064;4.580;2022-12-07T01:50:13;42.13;;;22.87;;
75261;SDS011;63859;51.064;4.580;2022-12-07T01:52:39;39.03;;;22.77;;
75261;SDS011;63859;51.064;4.580;2022-12-07T01:55:07;43.70;;;22.67;;
75261;SDS011;63859;51.064;4.580;2022-12-07T01:57:37;38.03;;;22.80;;
75261;SDS011;63859;51.064;4.580;2022-12-07T02:00:07;39.97;;;22.80;;
75261;SDS011;63859;51.064;4.580;2022-12-07T02:02:40;40.93;;;23.87;;
75261;SDS011;63859;51.064;4.580;2022-12-07T02:05:13;40.10;;;23.33;;
75261;SDS011;63859;51.064;4.580;2022-12-07T02:07:39;41.97;;;23.87;;
75261;SDS011;63859;51.064;4.580;2022-12-07T02:13:13;43.33;;;23.33;;
75261;SDS011;63859;51.064;4.580;2022-12-07T02:24:14;44.67;;;23.73;;
75261;SDS011;63859;51.064;4.580;2022-12-07T02:26:47;45.50;;;24.00;;
75261;SDS011;63859;51.064;4.580;2022-12-07T02:29:22;45.33;;;23.87;;
75261;SDS011;63859;51.064;4.580;2022-12-07T02:31:55;46.67;;;23.67;;
75261;SDS011;63859;51.064;4.580;2022-12-07T02:37:08;38.00;;;23.03;;
75261;SDS011;63859;51.064;4.580;2022-12-07T02:39:58;39.10;;;23.70;;
75261;SDS011;63859;51.064;4.580;2022-12-07T02:42:31;43.20;;;23.20;;
75261;SDS011;63859;51.064;4.580;2022-12-07T02:45:01;38.73;;;23.13;;
75261;SDS011;63859;51.064;4.580;2022-12-07T02:47:29;46.00;;;23.63;;
75261;SDS011;63859;51.064;4.580;2022-12-07T02:49:56;53.63;;;23.33;;
75261;SDS011;63859;51.064;4.580;2022-12-07T02:52:22;42.13;;;23.27;;
75261;SDS011;63859;51.064;4.580;2022-12-07T02:54:47;43.37;;;23.70;;
75261;SDS011;63859;51.064;4.580;2022-12-07T02:59:59;47.33;;;23.63;;
75261;SDS011;63859;51.064;4.580;2022-12-07T03:10:40;42.17;;;22.87;;
75261;SDS011;63859;51.064;4.580;2022-12-07T03:13:40;43.20;;;22.37;;
75261;SDS011;63859;51.064;4.580;2022-12-07T03:16:17;40.70;;;22.27;;
75261;SDS011;63859;51.064;4.580;2022-12-07T03:18:57;41.83;;;23.20;;
75261;SDS011;63859;51.064;4.580;2022-12-07T03:21:32;38.37;;;22.60;;
75261;SDS011;63859;51.064;4.580;2022-12-07T03:24:13;38.57;;;22.67;;
75261;SDS011;63859;51.064;4.580;2022-12-07T03:26:44;39.47;;;21.37;;
75261;SDS011;63859;51.064;4.580;2022-12-07T03:29:23;40.73;;;22.70;;
75261;SDS011;63859;51.064;4.580;2022-12-07T03:32:00;43.30;;;23.80;;
75261;SDS011;63859;51.064;4.580;2022-12-07T03:34:48;37.27;;;21.00;;
75261;SDS011;63859;51.064;4.580;2022-12-07T03:37:39;39.23;;;20.73;;
75261;SDS011;63859;51.064;4.580;2022-12-07T03:40:15;33.20;;;19.73;;
75261;SDS011;63859;51.064;4.580;2022-12-07T03:42:49;36.80;;;20.97;;
75261;SDS011;63859;51.064;4.580;2022-12-07T03:45:16;38.33;;;20.97;;
75261;SDS011;63859;51.064;4.580;2022-12-07T03:47:46;36.43;;;18.43;;
75261;SDS011;63859;51.064;4.580;2022-12-07T03:50:44;39.83;;;20.00;;
75261;SDS011;63859;51.064;4.580;2022-12-07T03:56:13;36.17;;;18.10;;
75261;SDS011;63859;51.064;4.580;2022-12-07T03:58:39;38.40;;;20.73;;
75261;SDS011;63859;51.064;4.580;2022-12-07T04:01:06;33.20;;;18.73;;
75261;SDS011;63859;51.064;4.580;2022-12-07T04:03:32;41.57;;;20.27;;
75261;SDS011;63859;51.064;4.580;2022-12-07T04:05:57;39.23;;;19.93;;
75261;SDS011;63859;51.064;4.580;2022-12-07T04:08:24;37.67;;;20.50;;
75261;SDS011;63859;51.064;4.580;2022-12-07T04:10:50;35.57;;;20.30;;
75261;SDS011;63859;51.064;4.580;2022-12-07T04:13:15;35.43;;;18.83;;
75261;SDS011;63859;51.064;4.580;2022-12-07T04:15:41;32.60;;;18.87;;
75261;SDS011;63859;51.064;4.580;2022-12-07T04:18:07;34.40;;;19.67;;
75261;SDS011;63859;51.064;4.580;2022-12-07T04:20:32;40.37;;;19.03;;
75261;SDS011;63859;51.064;4.580;2022-12-07T04:22:59;39.23;;;19.87;;
75261;SDS011;63859;51.064;4.580;2022-12-07T04:25:25;39.03;;;20.70;;
75261;SDS011;63859;51.064;4.580;2022-12-07T04:27:50;36.17;;;21.50;;
75261;SDS011;63859;51.064;4.580;2022-12-07T04:30:16;38.40;;;20.73;;
75261;SDS011;63859;51.064;4.580;2022-12-07T04:32:41;36.87;;;20.70;;
75261;SDS011;63859;51.064;4.580;2022-12-07T04:35:07;38.37;;;19.53;;
75261;SDS011;63859;51.064;4.580;2022-12-07T04:37:33;38.93;;;20.13;;
75261;SDS011;63859;51.064;4.580;2022-12-07T04:39:59;32.97;;;18.87;;
75261;SDS011;63859;51.064;4.580;2022-12-07T04:42:24;32.27;;;18.50;;
75261;SDS011;63859;51.064;4.580;2022-12-07T04:44:50;37.47;;;18.80;;
75261;SDS011;63859;51.064;4.580;2022-12-07T04:47:16;36.23;;;19.40;;
75261;SDS011;63859;51.064;4.580;2022-12-07T04:49:41;36.30;;;18.83;;
75261;SDS011;63859;51.064;4.580;2022-12-07T04:52:07;37.03;;;19.07;;
75261;SDS011;63859;51.064;4.580;2022-12-07T04:54:33;36.97;;;18.83;;
75261;SDS011;63859;51.064;4.580;2022-12-07T04:56:58;33.20;;;20.17;;
75261;SDS011;63859;51.064;4.580;2022-12-07T04:59:24;38.13;;;20.00;;
75261;SDS011;63859;51.064;4.580;2022-12-07T05:01:50;36.33;;;20.40;;
75261;SDS011;63859;51.064;4.580;2022-12-07T05:04:15;38.60;;;20.93;;
75261;SDS011;63859;51.064;4.580;2022-12-07T05:06:42;39.80;;;20.03;;
75261;SDS011;63859;51.064;4.580;2022-12-07T05:09:08;35.53;;;19.27;;
75261;SDS011;63859;51.064;4.580;2022-12-07T05:11:33;36.27;;;19.87;;
75261;SDS011;63859;51.064;4.580;2022-12-07T05:14:12;32.77;;;19.80;;
75261;SDS011;63859;51.064;4.580;2022-12-07T05:16:46;34.67;;;19.00;;
75261;SDS011;63859;51.064;4.580;2022-12-07T05:19:14;40.30;;;20.87;;
75261;SDS011;63859;51.064;4.580;2022-12-07T05:21:39;40.43;;;19.73;;
75261;SDS011;63859;51.064;4.580;2022-12-07T05:24:06;37.63;;;21.60;;
75261;SDS011;63859;51.064;4.580;2022-12-07T05:26:34;44.33;;;20.67;;
75261;SDS011;63859;51.064;4.580;2022-12-07T05:29:00;37.97;;;20.83;;
75261;SDS011;63859;51.064;4.580;2022-12-07T05:31:26;36.23;;;20.37;;
75261;SDS011;63859;51.064;4.580;2022-12-07T05:33:52;35.13;;;20.73;;
75261;SDS011;63859;51.064;4.580;2022-12-07T05:36:18;37.40;;;20.93;;
75261;SDS011;63859;51.064;4.580;2022-12-07T05:38:43;36.20;;;19.77;;
75261;SDS011;63859;51.064;4.580;2022-12-07T05:41:09;37.07;;;19.67;;
75261;SDS011;63859;51.064;4.580;2022-12-07T05:43:58;39.07;;;19.17;;
75261;SDS011;63859;51.064;4.580;2022-12-07T05:46:23;37.80;;;18.60;;
75261;SDS011;63859;51.064;4.580;2022-12-07T05:48:49;32.53;;;18.90;;
75261;SDS011;63859;51.064;4.580;2022-12-07T05:51:15;32.87;;;18.50;;
75261;SDS011;63859;51.064;4.580;2022-12-07T05:53:40;33.27;;;18.20;;
75261;SDS011;63859;51.064;4.580;2022-12-07T05:56:06;33.33;;;18.20;;
75261;SDS011;63859;51.064;4.580;2022-12-07T05:58:31;35.03;;;17.80;;
75261;SDS011;63859;51.064;4.580;2022-12-07T06:01:16;34.90;;;18.40;;
75261;SDS011;63859;51.064;4.580;2022-12-07T06:03:41;33.60;;;18.20;;
75261;SDS011;63859;51.064;4.580;2022-12-07T06:06:07;33.60;;;17.60;;
75261;SDS011;63859;51.064;4.580;2022-12-07T06:08:32;32.73;;;18.30;;
75261;SDS011;63859;51.064;4.580;2022-12-07T06:10:58;30.20;;;17.73;;
75261;SDS011;63859;51.064;4.580;2022-12-07T06:13:42;28.83;;;17.33;;
75261;SDS011;63859;51.064;4.580;2022-12-07T06:16:07;28.73;;;16.73;;
75261;SDS011;63859;51.064;4.580;2022-12-07T06:18:33;32.33;;;17.93;;
75261;SDS011;63859;51.064;4.580;2022-12-07T06:20:59;29.90;;;16.60;;
75261;SDS011;63859;51.064;4.580;2022-12-07T06:23:24;37.00;;;17.37;;
75261;SDS011;63859;51.064;4.580;2022-12-07T06:25:50;34.00;;;16.70;;
75261;SDS011;63859;51.064;4.580;2022-12-07T06:28:15;33.80;;;15.80;;
75261;SDS011;63859;51.064;4.580;2022-12-07T06:30:41;30.90;;;15.03;;
75261;SDS011;63859;51.064;4.580;2022-12-07T06:33:06;30.20;;;17.73;;
75261;SDS011;63859;51.064;4.580;2022-12-07T06:35:32;27.97;;;16.10;;
75261;SDS011;63859;51.064;4.580;2022-12-07T06:37:59;43.67;;;22.23;;
75261;SDS011;63859;51.064;4.580;2022-12-07T06:40:24;41.07;;;18.70;;
75261;SDS011;63859;51.064;4.580;2022-12-07T06:42:50;33.00;;;16.90;;
75261;SDS011;63859;51.064;4.580;2022-12-07T06:45:15;30.73;;;15.70;;
75261;SDS011;63859;51.064;4.580;2022-12-07T06:47:41;25.83;;;14.63;;
75261;SDS011;63859;51.064;4.580;2022-12-07T06:50:07;28.57;;;15.43;;
75261;SDS011;63859;51.064;4.580;2022-12-07T06:52:33;27.87;;;15.77;;
75261;SDS011;63859;51.064;4.580;2022-12-07T06:54:59;26.53;;;14.33;;
75261;SDS011;63859;51.064;4.580;2022-12-07T06:57:25;27.93;;;15.00;;
75261;SDS011;63859;51.064;4.580;2022-12-07T06:59:51;29.40;;;15.00;;
75261;SDS011;63859;51.064;4.580;2022-12-07T07:02:16;29.73;;;14.90;;
75261;SDS011;63859;51.064;4.580;2022-12-07T07:04:42;26.00;;;14.03;;
75261;SDS011;63859;51.064;4.580;2022-12-07T07:07:08;28.27;;;14.10;;
75261;SDS011;63859;51.064;4.580;2022-12-07T07:09:34;25.13;;;14.73;;
75261;SDS011;63859;51.064;4.580;2022-12-07T07:11:59;29.50;;;14.57;;
75261;SDS011;63859;51.064;4.580;2022-12-07T07:14:25;25.30;;;14.00;;
75261;SDS011;63859;51.064;4.580;2022-12-07T07:16:51;25.70;;;14.27;;
75261;SDS011;63859;51.064;4.580;2022-12-07T07:19:16;22.40;;;12.97;;
75261;SDS011;63859;51.064;4.580;2022-12-07T07:21:42;22.73;;;12.97;;
75261;SDS011;63859;51.064;4.580;2022-12-07T07:24:08;30.87;;;13.07;;
75261;SDS011;63859;51.064;4.580;2022-12-07T07:26:33;21.47;;;12.80;;
75261;SDS011;63859;51.064;4.580;2022-12-07T07:28:59;27.30;;;13.93;;
75261;SDS011;63859;51.064;4.580;2022-12-07T07:31:24;23.67;;;12.73;;
75261;SDS011;63859;51.064;4.580;2022-12-07T07:33:50;33.13;;;12.40;;
75261;SDS011;63859;51.064;4.580;2022-12-07T07:36:15;25.90;;;15.97;;
75261;SDS011;63859;51.064;4.580;2022-12-07T07:38:41;55.17;;;31.83;;
75261;SDS011;63859;51.064;4.580;2022-12-07T07:41:07;49.93;;;28.17;;
75261;SDS011;63859;51.064;4.580;2022-12-07T07:43:32;37.37;;;20.60;;
75261;SDS011;63859;51.064;4.580;2022-12-07T07:45:58;35.23;;;18.00;;
75261;SDS011;63859;51.064;4.580;2022-12-07T07:48:23;31.10;;;16.50;;
75261;SDS011;63859;51.064;4.580;2022-12-07T07:50:50;25.27;;;13.57;;
75261;SDS011;63859;51.064;4.580;2022-12-07T07:53:16;25.47;;;13.17;;
75261;SDS011;63859;51.064;4.580;2022-12-07T07:55:41;27.60;;;13.30;;
75261;SDS011;63859;51.064;4.580;2022-12-07T07:58:14;23.53;;;13.03;;
75261;SDS011;63859;51.064;4.580;2022-12-07T08:00:40;27.83;;;13.60;;
75261;SDS011;63859;51.064;4.580;2022-12-07T08:03:05;25.50;;;14.13;;
75261;SDS011;63859;51.064;4.580;2022-12-07T08:05:31;34.33;;;14.57;;
75261;SDS011;63859;51.064;4.580;2022-12-07T08:07:57;27.87;;;15.07;;
75261;SDS011;63859;51.064;4.580;2022-12-07T08:10:23;30.70;;;16.00;;
75261;SDS011;63859;51.064;4.580;2022-12-07T08:12:48;29.67;;;15.47;;
75261;SDS011;63859;51.064;4.580;2022-12-07T08:15:32;31.00;;;14.83;;
75261;SDS011;63859;51.064;4.580;2022-12-07T08:17:58;26.80;;;14.43;;
75261;SDS011;63859;51.064;4.580;2022-12-07T08:20:24;32.17;;;14.87;;
75261;SDS011;63859;51.064;4.580;2022-12-07T08:22:50;28.67;;;14.37;;
75261;SDS011;63859;51.064;4.580;2022-12-07T08:25:16;25.63;;;13.53;;
75261;SDS011;63859;51.064;4.580;2022-12-07T08:27:41;26.97;;;14.30;;
75261;SDS011;63859;51.064;4.580;2022-12-07T08:30:07;24.27;;;12.33;;
75261;SDS011;63859;51.064;4.580;2022-12-07T08:32:33;27.73;;;15.97;;
75261;SDS011;63859;51.064;4.580;2022-12-07T08:34:58;27.37;;;14.30;;
75261;SDS011;63859;51.064;4.580;2022-12-07T08:37:24;29.87;;;15.00;;
75261;SDS011;63859;51.064;4.580;2022-12-07T08:39:50;23.23;;;13.60;;
75261;SDS011;63859;51.064;4.580;2022-12-07T08:42:15;28.50;;;13.30;;
75261;SDS011;63859;51.064;4.580;2022-12-07T08:44:41;22.07;;;13.83;;
75261;SDS011;63859;51.064;4.580;2022-12-07T08:47:07;26.73;;;13.60;;
75261;SDS011;63859;51.064;4.580;2022-12-07T08:49:37;23.40;;;13.67;;
75261;SDS011;63859;51.064;4.580;2022-12-07T08:52:06;31.57;;;13.57;;
75261;SDS011;63859;51.064;4.580;2022-12-07T08:54:33;33.53;;;15.43;;
75261;SDS011;63859;51.064;4.580;2022-12-07T08:57:01;37.63;;;13.80;;
75261;SDS011;63859;51.064;4.580;2022-12-07T08:59:27;23.63;;;12.50;;
75261;SDS011;63859;51.064;4.580;2022-12-07T09:01:54;24.50;;;13.30;;
75261;SDS011;63859;51.064;4.580;2022-12-07T09:04:20;21.73;;;12.20;;
75261;SDS011;63859;51.064;4.580;2022-12-07T09:06:46;26.03;;;12.70;;
75261;SDS011;63859;51.064;4.580;2022-12-07T09:09:12;22.23;;;11.77;;
75261;SDS011;63859;51.064;4.580;2022-12-07T09:11:38;23.50;;;10.73;;
75261;SDS011;63859;51.064;4.580;2022-12-07T09:14:04;22.40;;;10.93;;
75261;SDS011;63859;51.064;4.580;2022-12-07T09:16:30;19.33;;;11.33;;
75261;SDS011;63859;51.064;4.580;2022-12-07T09:18:56;24.13;;;10.87;;
75261;SDS011;63859;51.064;4.580;2022-12-07T09:21:21;30.03;;;12.10;;
75261;SDS011;63859;51.064;4.580;2022-12-07T09:23:47;23.37;;;11.07;;
75261;SDS011;63859;51.064;4.580;2022-12-07T09:26:12;26.03;;;10.50;;
75261;SDS011;63859;51.064;4.580;2022-12-07T09:28:38;29.50;;;11.50;;
75261;SDS011;63859;51.064;4.580;2022-12-07T09:31:04;21.53;;;11.20;;
75261;SDS011;63859;51.064;4.580;2022-12-07T09:33:30;26.53;;;10.77;;
75261;SDS011;63859;51.064;4.580;2022-12-07T09:35:57;21.93;;;10.60;;
75261;SDS011;63859;51.064;4.580;2022-12-07T09:38:23;21.27;;;10.53;;
75261;SDS011;63859;51.064;4.580;2022-12-07T09:40:51;23.63;;;11.50;;
75261;SDS011;63859;51.064;4.580;2022-12-07T09:43:20;22.13;;;10.93;;
75261;SDS011;63859;51.064;4.580;2022-12-07T09:45:51;25.77;;;11.30;;
75261;SDS011;63859;51.064;4.580;2022-12-07T09:48:20;21.90;;;11.10;;
75261;SDS011;63859;51.064;4.580;2022-12-07T09:50:54;19.73;;;11.30;;
75261;SDS011;63859;51.064;4.580;2022-12-07T09:53:28;22.90;;;11.50;;
75261;SDS011;63859;51.064;4.580;2022-12-07T09:55:59;25.67;;;11.03;;
75261;SDS011;63859;51.064;4.580;2022-12-07T09:58:26;22.83;;;11.10;;
75261;SDS011;63859;51.064;4.580;2022-12-07T10:00:54;23.50;;;10.63;;
75261;SDS011;63859;51.064;4.580;2022-12-07T10:03:23;21.03;;;10.07;;
75261;SDS011;63859;51.064;4.580;2022-12-07T10:05:51;20.50;;;10.30;;
75261;SDS011;63859;51.064;4.580;2022-12-07T10:08:17;15.40;;;9.63;;
75261;SDS011;63859;51.064;4.580;2022-12-07T10:10:44;18.43;;;9.23;;
75261;SDS011;63859;51.064;4.580;2022-12-07T10:13:11;18.40;;;9.50;;
75261;SDS011;63859;51.064;4.580;2022-12-07T10:18:26;20.43;;;8.50;;
75261;SDS011;63859;51.064;4.580;2022-12-07T10:21:05;60.77;;;12.17;;
75261;SDS011;63859;51.064;4.580;2022-12-07T10:23:33;21.57;;;7.80;;
75261;SDS011;63859;51.064;4.580;2022-12-07T10:25:59;143.43;;;19.47;;
75261;SDS011;63859;51.064;4.580;2022-12-07T10:28:35;630.27;;;64.97;;
75261;SDS011;63859;51.064;4.580;2022-12-07T10:31:02;56.50;;;12.23;;
75261;SDS011;63859;51.064;4.580;2022-12-07T10:33:56;26.07;;;7.97;;
75261;SDS011;63859;51.064;4.580;2022-12-07T10:39:17;14.23;;;6.30;;
75261;SDS011;63859;51.064;4.580;2022-12-07T10:42:03;14.37;;;6.63;;
75261;SDS011;63859;51.064;4.580;2022-12-07T10:44:32;12.10;;;5.43;;
75261;SDS011;63859;51.064;4.580;2022-12-07T10:47:22;12.17;;;5.13;;
75261;SDS011;63859;51.064;4.580;2022-12-07T11:00:55;12.07;;;4.63;;
75261;SDS011;63859;51.064;4.580;2022-12-07T11:06:42;7.87;;;4.60;;
75261;SDS011;63859;51.064;4.580;2022-12-07T11:12:29;12.10;;;4.80;;
75261;SDS011;63859;51.064;4.580;2022-12-07T11:15:09;13.57;;;5.07;;
75261;SDS011;63859;51.064;4.580;2022-12-07T11:23:13;14.33;;;5.10;;
75261;SDS011;63859;51.064;4.580;2022-12-07T11:36:24;12.03;;;4.90;;
75261;SDS011;63859;51.064;4.580;2022-12-07T11:42:01;16.57;;;5.10;;
75261;SDS011;63859;51.064;4.580;2022-12-07T11:44:39;14.57;;;5.73;;
75261;SDS011;63859;51.064;4.580;2022-12-07T11:47:30;11.97;;;5.93;;
75261;SDS011;63859;51.064;4.580;2022-12-07T11:55:26;12.60;;;5.47;;
75261;SDS011;63859;51.064;4.580;2022-12-07T11:57:58;14.03;;;5.60;;
75261;SDS011;63859;51.064;4.580;2022-12-07T12:00:29;10.00;;;5.30;;
75261;SDS011;63859;51.064;4.580;2022-12-07T12:03:02;9.67;;;4.73;;
75261;SDS011;63859;51.064;4.580;2022-12-07T12:05:42;10.87;;;4.70;;
75261;SDS011;63859;51.064;4.580;2022-12-07T12:08:19;10.00;;;4.17;;
75261;SDS011;63859;51.064;4.580;2022-12-07T12:10:55;11.10;;;3.83;;
75261;SDS011;63859;51.064;4.580;2022-12-07T12:19:37;11.33;;;4.97;;
75261;SDS011;63859;51.064;4.580;2022-12-07T12:22:12;11.27;;;5.37;;
75261;SDS011;63859;51.064;4.580;2022-12-07T12:24:44;10.73;;;4.80;;
75261;SDS011;63859;51.064;4.580;2022-12-07T12:27:32;11.07;;;4.90;;
75261;SDS011;63859;51.064;4.580;2022-12-07T12:30:06;14.03;;;5.27;;
75261;SDS011;63859;51.064;4.580;2022-12-07T12:32:49;10.33;;;4.07;;
75261;SDS011;63859;51.064;4.580;2022-12-07T12:37:55;6.97;;;4.00;;
75261;SDS011;63859;51.064;4.580;2022-12-07T12:40:41;11.60;;;3.80;;
75261;SDS011;63859;51.064;4.580;2022-12-07T12:43:39;7.70;;;3.83;;
75261;SDS011;63859;51.064;4.580;2022-12-07T12:51:39;12.33;;;5.00;;
75261;SDS011;63859;51.064;4.580;2022-12-07T12:59:55;14.10;;;4.43;;
75261;SDS011;63859;51.064;4.580;2022-12-07T13:18:37;12.10;;;5.10;;
75261;SDS011;63859;51.064;4.580;2022-12-07T13:28:47;6.63;;;3.90;;
75261;SDS011;63859;51.064;4.580;2022-12-07T13:33:44;8.27;;;4.13;;
75261;SDS011;63859;51.064;4.580;2022-12-07T13:36:22;16.47;;;5.37;;
75261;SDS011;63859;51.064;4.580;2022-12-07T13:38:50;9.83;;;4.07;;
75261;SDS011;63859;51.064;4.580;2022-12-07T13:41:20;12.70;;;4.03;;
75261;SDS011;63859;51.064;4.580;2022-12-07T13:43:49;15.17;;;5.30;;
75261;SDS011;63859;51.064;4.580;2022-12-07T13:46:17;12.80;;;5.10;;
75261;SDS011;63859;51.064;4.580;2022-12-07T13:48:49;13.53;;;4.60;;
75261;SDS011;63859;51.064;4.580;2022-12-07T13:51:34;9.37;;;5.10;;
75261;SDS011;63859;51.064;4.580;2022-12-07T13:54:07;14.27;;;4.43;;
75261;SDS011;63859;51.064;4.580;2022-12-07T13:56:38;10.07;;;4.30;;
75261;SDS011;63859;51.064;4.580;2022-12-07T13:59:05;61.70;;;8.30;;
75261;SDS011;63859;51.064;4.580;2022-12-07T14:01:37;15.97;;;5.13;;
75261;SDS011;63859;51.064;4.580;2022-12-07T14:04:16;74.40;;;11.47;;
75261;SDS011;63859;51.064;4.580;2022-12-07T14:06:54;22.17;;;5.53;;
75261;SDS011;63859;51.064;4.580;2022-12-07T14:09:20;11.17;;;5.27;;
75261;SDS011;63859;51.064;4.580;2022-12-07T14:11:48;17.73;;;5.20;;
75261;SDS011;63859;51.064;4.580;2022-12-07T14:14:18;13.23;;;4.47;;
75261;SDS011;63859;51.064;4.580;2022-12-07T14:16:55;7.20;;;3.80;;
75261;SDS011;63859;51.064;4.580;2022-12-07T14:19:57;8.70;;;4.10;;
75261;SDS011;63859;51.064;4.580;2022-12-07T14:22:19;7.50;;;3.70;;
75261;SDS011;63859;51.064;4.580;2022-12-07T14:24:50;7.03;;;3.90;;
75261;SDS011;63859;51.064;4.580;2022-12-07T14:27:20;5.27;;;2.83;;
75261;SDS011;63859;51.064;4.580;2022-12-07T14:29:47;4.93;;;2.67;;
75261;SDS011;63859;51.064;4.580;2022-12-07T14:32:26;7.77;;;2.30;;
75261;SDS011;63859;51.064;4.580;2022-12-07T14:35:01;6.90;;;2.60;;
75261;SDS011;63859;51.064;4.580;2022-12-07T14:37:35;3.53;;;2.33;;
75261;SDS011;63859;51.064;4.580;2022-12-07T14:40:01;10.77;;;2.30;;
75261;SDS011;63859;51.064;4.580;2022-12-07T14:42:29;4.00;;;2.17;;
75261;SDS011;63859;51.064;4.580;2022-12-07T14:44:56;5.20;;;2.40;;
75261;SDS011;63859;51.064;4.580;2022-12-07T14:47:23;4.50;;;2.10;;
75261;SDS011;63859;51.064;4.580;2022-12-07T14:49:49;6.40;;;3.20;;
75261;SDS011;63859;51.064;4.580;2022-12-07T14:52:23;6.67;;;2.57;;
75261;SDS011;63859;51.064;4.580;2022-12-07T14:54:52;9.30;;;2.70;;
75261;SDS011;63859;51.064;4.580;2022-12-07T14:57:17;6.13;;;2.50;;
75261;SDS011;63859;51.064;4.580;2022-12-07T14:59:43;12.70;;;3.10;;
75261;SDS011;63859;51.064;4.580;2022-12-07T15:02:10;6.40;;;3.03;;
75261;SDS011;63859;51.064;4.580;2022-12-07T15:04:37;6.30;;;2.97;;
75261;SDS011;63859;51.064;4.580;2022-12-07T15:07:03;3.90;;;2.70;;
75261;SDS011;63859;51.064;4.580;2022-12-07T15:09:34;4.63;;;2.63;;
75261;SDS011;63859;51.064;4.580;2022-12-07T15:11:59;5.20;;;2.30;;
75261;SDS011;63859;51.064;4.580;2022-12-07T15:14:25;11.03;;;2.67;;
75261;SDS011;63859;51.064;4.580;2022-12-07T15:16:50;6.97;;;2.80;;
75261;SDS011;63859;51.064;4.580;2022-12-07T15:19:17;4.13;;;2.30;;
75261;SDS011;63859;51.064;4.580;2022-12-07T15:21:50;5.43;;;2.33;;
75261;SDS011;63859;51.064;4.580;2022-12-07T15:24:16;4.30;;;2.90;;
75261;SDS011;63859;51.064;4.580;2022-12-07T15:26:42;9.30;;;2.60;;
75261;SDS011;63859;51.064;4.580;2022-12-07T15:29:07;5.73;;;3.00;;
75261;SDS011;63859;51.064;4.580;2022-12-07T15:31:34;7.53;;;3.07;;
75261;SDS011;63859;51.064;4.580;2022-12-07T15:33:59;8.40;;;2.97;;
75261;SDS011;63859;51.064;4.580;2022-12-07T15:36:27;6.43;;;2.97;;
75261;SDS011;63859;51.064;4.580;2022-12-07T15:38:54;12.40;;;3.13;;
75261;SDS011;63859;51.064;4.580;2022-12-07T15:41:20;11.40;;;3.27;;
75261;SDS011;63859;51.064;4.580;2022-12-07T15:43:46;9.03;;;3.70;;
75261;SDS011;63859;51.064;4.580;2022-12-07T15:46:31;5.80;;;2.97;;
75261;SDS011;63859;51.064;4.580;2022-12-07T15:49:02;5.67;;;3.10;;
75261;SDS011;63859;51.064;4.580;2022-12-07T15:51:29;8.30;;;3.20;;
75261;SDS011;63859;51.064;4.580;2022-12-07T15:53:56;5.30;;;2.90;;
75261;SDS011;63859;51.064;4.580;2022-12-07T15:56:23;13.37;;;3.27;;
75261;SDS011;63859;51.064;4.580;2022-12-07T15:58:49;4.57;;;3.10;;
75261;SDS011;63859;51.064;4.580;2022-12-07T16:01:16;7.37;;;3.33;;
75261;SDS011;63859;51.064;4.580;2022-12-07T16:03:43;10.20;;;3.90;;
75261;SDS011;63859;51.064;4.580;2022-12-07T16:06:10;7.77;;;3.80;;
75261;SDS011;63859;51.064;4.580;2022-12-07T16:08:36;8.33;;;3.63;;
75261;SDS011;63859;51.064;4.580;2022-12-07T16:11:08;9.10;;;3.70;;
75261;SDS011;63859;51.064;4.580;2022-12-07T16:13:33;6.23;;;3.37;;
75261;SDS011;63859;51.064;4.580;2022-12-07T16:16:06;8.73;;;3.57;;
75261;SDS011;63859;51.064;4.580;2022-12-07T16:18:35;5.83;;;3.10;;
75261;SDS011;63859;51.064;4.580;2022-12-07T16:21:00;6.73;;;3.37;;
75261;SDS011;63859;51.064;4.580;2022-12-07T16:23:27;7.40;;;3.20;;
75261;SDS011;63859;51.064;4.580;2022-12-07T16:25:52;7.73;;;3.27;;
75261;SDS011;63859;51.064;4.580;2022-12-07T16:28:18;4.97;;;2.70;;
75261;SDS011;63859;51.064;4.580;2022-12-07T16:30:44;6.37;;;3.23;;
75261;SDS011;63859;51.064;4.580;2022-12-07T16:33:10;8.27;;;3.20;;
75261;SDS011;63859;51.064;4.580;2022-12-07T16:35:38;9.63;;;3.20;;
75261;SDS011;63859;51.064;4.580;2022-12-07T16:38:05;4.57;;;2.83;;
75261;SDS011;63859;51.064;4.580;2022-12-07T16:40:31;7.07;;;2.67;;
75261;SDS011;63859;51.064;4.580;2022-12-07T16:42:57;7.63;;;3.07;;
75261;SDS011;63859;51.064;4.580;2022-12-07T16:45:23;8.13;;;2.67;;
75261;SDS011;63859;51.064;4.580;2022-12-07T16:47:48;5.27;;;2.40;;